Date,TemperatureHighF,TemperatureAvgF,TemperatureLowF,DewpointHighF,DewpointAvgF,DewpointLowF,HumidityHigh,HumidityAvg,HumidityLow,PressureMaxIn,PressureMinIn,WindSpeedMaxMPH,WindSpeedAvgMPH,GustSpeedMaxMPH,PrecipitationSumIn
2013-11-1,85,81,72,28,26,23,19,14,12,30.06,29.93,15,6,21,0.00
2013-11-2,81,68,55,58,35,22,100,38,13,29.96,29.85,16,10,25,0.00
2013-11-5,75,63,50,51,32,16,100,44,12,30.06,29.90,12,6,21,0.00
2013-11-6,81,70,60,18,9,-2,14,10,5,30.15,30.10,19,11,33,0.00
2013-11-7,86,78,67,25,16,9,18,10,7,30.09,29.98,19,9,30,0.00
2013-11-8,79,70,63,41,37,24,42,31,13,29.95,29.91,9,7,16,0.00
2013-11-9,78,70,60,42,33,27,51,27,15,30.02,29.97,9,7,16,0.00
2013-11-10,85,70,58,49,35,20,73,35,10,30.10,30.00,13,7,20,0.00
2013-11-11,81,71,57,45,40,35,51,34,21,30.06,30.00,9,7,17,0.00
2013-11-12,77,70,63,39,38,38,39,32,26,30.06,30.06,12,8,13,0.00
2013-11-13,90,86,77,39,27,16,22,13,9,29.95,29.89,18,9,24,0.00
2013-11-14,89,79,67,38,26,16,35,15,9,29.92,29.74,15,10,24,0.00
2013-11-15,65,58,53,56,51,31,100,79,28,29.74,29.64,13,8,27,0.00
2013-11-16,62,55,51,55,49,42,100,80,55,29.90,29.71,12,7,20,0.00
2013-11-17,72,58,52,53,48,44,96,73,41,30.04,29.90,8,5,16,0.00
2013-11-18,65,56,51,58,51,47,100,85,54,30.11,30.00,10,5,15,0.00
2013-11-19,61,55,51,54,51,48,100,87,64,30.03,29.92,16,6,45,0.00
2013-11-20,62,56,51,55,52,48,100,87,66,29.93,29.85,9,6,31,0.01
2013-11-21,58,55,51,58,54,51,100,99,93,29.90,29.79,12,8,21,0.30
2013-11-22,55,52,50,50,38,32,100,59,46,29.89,29.78,22,11,32,0.01
2013-11-23,61,54,50,36,34,32,53,47,35,30.03,29.89,22,13,42,0.00
2013-11-24,67,56,48,40,36,34,59,48,33,30.14,30.02,14,7,25,0.00
2013-11-25,72,61,52,41,35,32,54,40,23,30.19,30.12,8,6,16,0.00
2013-11-26,74,66,57,38,31,27,42,27,18,30.14,30.00,18,12,28,0.00
2013-11-27,77,64,58,36,31,28,38,30,20,30.00,29.85,18,11,29,0.00
2013-11-28,69,60,54,42,34,27,54,39,25,30.01,29.83,17,8,26,0.00
2013-11-29,59,56,50,52,43,35,98,62,45,30.13,30.00,14,9,24,0.01
2013-11-30,78,64,54,42,40,33,64,42,26,30.14,30.04,9,5,14,0.01